Time;durP1;ratioP1;P1;durP2;ratioP2;P2;SDS_P1;SDS_P2;PMS_P1;PMS_P2;Temp;Humidity;BMP_temperature;BMP_pressure;BME280_temperature;BME280_humidity;BME280_pressure;Samples;Min_cycle;Max_cycle;Signal;HPM_P1;HPM_P2
2022/06/06 00:00:43;;;;;;;3.97;0.70;;;15.40;99.90;;;;;;4794018;29;20040;-90
2022/06/06 00:03:18;;;;;;;2.38;0.80;;;15.40;99.90;;;;;;4805141;29;20233;-90
2022/06/06 00:05:55;;;;;;;1.35;0.52;;;15.30;99.90;;;;;;4795567;29;20193;-91
2022/06/06 00:08:53;;;;;;;3.67;0.65;;;15.30;99.90;;;;;;4790675;29;20058;-91
2022/06/06 00:12:02;;;;;;;2.28;0.70;;;15.20;99.90;;;;;;4804531;29;20034;-90
2022/06/06 00:14:45;;;;;;;2.08;0.85;;;14.90;99.90;;;;;;4824863;29;20039;-90
2022/06/06 00:17:25;;;;;;;1.52;0.60;;;15.20;99.90;;;;;;4813161;29;20023;-90
2022/06/06 00:20:53;;;;;;;2.25;0.50;;;15.20;99.90;;;;;;4810926;29;20500;-89
2022/06/06 00:23:21;;;;;;;2.60;0.80;;;15.50;99.90;;;;;;4814605;29;20041;-90
2022/06/06 00:25:58;;;;;;;3.05;0.80;;;15.60;99.90;;;;;;4804966;29;20027;-91
2022/06/06 00:28:43;;;;;;;1.52;0.60;;;15.20;99.90;;;;;;4814261;29;20034;-91
2022/06/06 00:37:42;;;;;;;1.58;0.60;;;15.10;99.90;;;;;;4800865;29;20471;-91
2022/06/06 00:40:11;;;;;;;3.00;0.85;;;15.00;99.90;;;;;;4804441;29;20043;-90
2022/06/06 00:42:42;;;;;;;1.52;0.68;;;15.10;99.90;;;;;;4805923;29;20042;-90
2022/06/06 00:45:25;;;;;;;2.67;0.60;;;15.10;99.90;;;;;;4794513;29;20030;-91
2022/06/06 00:48:08;;;;;;;1.98;0.60;;;15.30;99.90;;;;;;4816250;29;20019;-90
2022/06/06 00:50:55;;;;;;;2.35;0.93;;;15.00;99.90;;;;;;4802514;29;20035;-89
2022/06/06 00:53:48;;;;;;;1.48;0.60;;;15.00;99.90;;;;;;4796457;29;20031;-90
2022/06/06 00:56:40;;;;;;;1.55;0.65;;;14.90;99.90;;;;;;4787687;29;20073;-90
2022/06/06 00:59:19;;;;;;;2.95;0.70;;;14.90;99.90;;;;;;4789462;29;20027;-90
2022/06/06 01:01:49;;;;;;;1.98;0.85;;;14.90;99.90;;;;;;4797435;29;20114;-90
2022/06/06 01:04:18;;;;;;;1.73;0.70;;;14.90;99.90;;;;;;4800816;29;20516;-91
2022/06/06 01:06:45;;;;;;;3.00;0.75;;;14.80;99.90;;;;;;4805722;29;20211;-89
2022/06/06 01:09:15;;;;;;;3.90;0.77;;;14.90;99.90;;;;;;4798916;29;20031;-91
2022/06/06 01:12:19;;;;;;;1.77;0.80;;;14.90;99.90;;;;;;4802223;29;20071;-90
2022/06/06 01:15:02;;;;;;;1.70;0.70;;;14.70;99.90;;;;;;4793680;29;20405;-90
2022/06/06 01:17:50;;;;;;;1.83;0.75;;;15.10;99.90;;;;;;4792840;29;20485;-91
2022/06/06 01:20:34;;;;;;;2.00;0.80;;;14.80;99.90;;;;;;4804828;29;20034;-91
2022/06/06 01:23:34;;;;;;;2.50;0.98;;;15.00;99.90;;;;;;4798748;29;20397;-91
2022/06/06 01:26:46;;;;;;;1.40;0.63;;;14.70;99.90;;;;;;4789592;29;20037;-89
2022/06/06 01:29:22;;;;;;;2.05;0.60;;;14.80;99.90;;;;;;4799169;29;20027;-90
2022/06/06 01:32:06;;;;;;;4.10;0.90;;;14.80;99.90;;;;;;4793986;29;20083;-90
2022/06/06 01:34:36;;;;;;;1.65;0.63;;;14.80;99.90;;;;;;4805721;29;20038;-90
2022/06/06 01:37:28;;;;;;;1.42;0.65;;;14.90;99.90;;;;;;4797676;29;20061;-90
2022/06/06 01:40:05;;;;;;;2.42;1.00;;;14.80;99.90;;;;;;4807021;29;20019;-91
2022/06/06 01:42:51;;;;;;;2.33;0.90;;;14.80;99.90;;;;;;4805514;29;20031;-90
2022/06/06 01:45:48;;;;;;;2.17;0.80;;;14.80;99.90;;;;;;4810576;29;20039;-90
2022/06/06 01:48:26;;;;;;;1.63;0.70;;;14.70;99.90;;;;;;4800373;29;20032;-91
2022/06/06 01:51:17;;;;;;;1.70;0.55;;;14.90;99.90;;;;;;4800977;29;20084;-89
2022/06/06 01:53:46;;;;;;;1.98;0.88;;;14.90;99.90;;;;;;4789249;29;20088;-90
2022/06/06 01:56:17;;;;;;;2.08;1.05;;;14.90;99.90;;;;;;4787554;29;20035;-90
2022/06/06 01:58:46;;;;;;;4.80;1.00;;;14.90;99.90;;;;;;4802202;29;20022;-90
2022/06/06 02:01:17;;;;;;;1.98;0.93;;;14.90;99.90;;;;;;4816538;29;20300;-91
2022/06/06 02:03:56;;;;;;;2.25;0.82;;;14.80;99.90;;;;;;4812361;29;20039;-91
2022/06/06 02:06:22;;;;;;;1.55;0.70;;;14.80;99.90;;;;;;4806844;29;20030;-91
2022/06/06 02:09:00;;;;;;;2.40;0.90;;;14.80;99.90;;;;;;4798994;29;20053;-90
2022/06/06 02:11:31;;;;;;;4.97;0.98;;;14.70;99.90;;;;;;4796235;29;20039;-91
2022/06/06 02:14:29;;;;;;;;;;;;;;;;;;;;;
2022/06/06 02:16:57;;;;;;;1.58;0.70;;;14.70;99.90;;;;;;4807116;29;20038;-91
2022/06/06 02:19:37;;;;;;;2.13;0.90;;;14.70;99.90;;;;;;4808079;29;20039;-91
2022/06/06 02:22:17;;;;;;;4.55;0.98;;;14.70;99.90;;;;;;4791440;29;20035;-91
2022/06/06 02:24:45;;;;;;;2.47;1.00;;;14.70;99.90;;;;;;4794914;29;20052;-91
2022/06/06 02:27:22;;;;;;;2.15;0.93;;;14.60;99.90;;;;;;4800781;29;20031;-90
2022/06/06 02:30:13;;;;;;;2.45;0.90;;;14.60;99.90;;;;;;4800110;29;20114;-91
2022/06/06 02:32:46;;;;;;;2.42;0.90;;;14.60;99.90;;;;;;4803732;29;20022;-91
2022/06/06 02:35:27;;;;;;;3.40;0.93;;;14.70;99.90;;;;;;4813354;29;20035;-91
2022/06/06 02:41:17;;;;;;;1.85;0.60;;;14.60;99.90;;;;;;4819474;29;20034;-91
2022/06/06 02:44:02;;;;;;;2.15;1.10;;;14.60;99.90;;;;;;4796794;29;20215;-90
2022/06/06 02:46:45;;;;;;;1.98;0.95;;;14.60;99.90;;;;;;4802608;29;20035;-91
2022/06/06 02:49:33;;;;;;;5.30;0.90;;;14.70;99.90;;;;;;4808484;29;20095;-92
2022/06/06 02:52:07;;;;;;;4.35;1.08;;;14.30;99.90;;;;;;4808254;29;20038;-91
2022/06/06 02:57:52;;;;;;;2.50;0.95;;;14.30;99.90;;;;;;4804039;29;20031;-90
2022/06/06 03:00:41;;;;;;;;;;;;;;;;;;;;;
2022/06/06 03:03:54;;;;;;;2.25;0.73;;;14.30;99.90;;;;;;4807699;29;20087;-90
2022/06/06 03:06:46;;;;;;;1.95;0.80;;;14.00;99.90;;;;;;4803895;29;20033;-90
2022/06/06 03:09:53;;;;;;;2.58;1.13;;;14.20;99.90;;;;;;4824830;29;20049;-91
2022/06/06 03:12:55;;;;;;;2.75;1.10;;;14.30;99.90;;;;;;4800005;29;20031;-90
2022/06/06 03:15:39;;;;;;;1.77;0.85;;;14.20;99.90;;;;;;4794511;29;20174;-91
2022/06/06 03:24:54;;;;;;;;;;;;;;;;;;;;;
2022/06/06 03:27:29;;;;;;;2.47;1.23;;;14.50;99.90;;;;;;4804450;29;20031;-91
2022/06/06 03:30:48;;;;;;;1.90;0.95;;;14.10;99.90;;;;;;4803145;29;20041;-91
2022/06/06 03:33:46;;;;;;;6.13;1.33;;;14.20;99.90;;;;;;4802455;29;20049;-90
2022/06/06 03:43:00;;;;;;;1.92;0.70;;;14.10;99.90;;;;;;4796162;29;20035;-90
2022/06/06 03:45:51;;;;;;;2.28;1.00;;;14.20;99.90;;;;;;4814714;29;20165;-90
2022/06/06 03:48:44;;;;;;;2.58;1.23;;;14.80;99.90;;;;;;4801961;29;20049;-91
2022/06/06 03:52:00;;;;;;;1.98;0.80;;;14.20;99.90;;;;;;4795656;29;20093;-91
2022/06/06 03:57:49;;;;;;;;;;;;;;;;;;;;;
2022/06/06 04:00:37;;;;;;;2.20;1.02;;;14.20;99.90;;;;;;4788078;29;20551;-91
2022/06/06 04:03:27;;;;;;;2.28;0.90;;;14.20;99.90;;;;;;4797861;29;20023;-91
2022/06/06 04:06:20;;;;;;;2.78;0.85;;;13.90;99.90;;;;;;4791661;29;20039;-91
2022/06/06 04:09:11;;;;;;;1.73;0.75;;;13.60;99.90;;;;;;4788859;29;20608;-90
2022/06/06 04:12:15;;;;;;;;;;;;;;;;;;;;;
2022/06/06 04:15:12;;;;;;;2.42;1.20;;;14.90;99.90;;;;;;4791762;29;20030;-90
2022/06/06 04:17:58;;;;;;;2.83;0.95;;;14.40;99.90;;;;;;4806031;29;20493;-91
2022/06/06 04:20:47;;;;;;;2.13;0.85;;;14.40;99.90;;;;;;4790087;29;20051;-91
2022/06/06 04:23:49;;;;;;;2.50;0.82;;;14.10;99.90;;;;;;4789937;29;20122;-90
2022/06/06 04:30:18;;;;;;;;;;;;;;;;;;;;;
2022/06/06 04:33:31;;;;;;;3.67;1.15;;;14.50;99.90;;;;;;4794243;29;20405;-91
2022/06/06 04:36:26;;;;;;;2.35;1.15;;;14.80;99.90;;;;;;4798996;29;20034;-92
2022/06/06 04:39:35;;;;;;;2.28;0.90;;;15.10;99.90;;;;;;4802156;29;20105;-91
2022/06/06 04:43:10;;;;;;;2.63;0.80;;;15.10;99.90;;;;;;4819688;29;20078;-91
2022/06/06 04:49:08;;;;;;;1.83;0.80;;;15.30;99.90;;;;;;4793989;29;20058;-91
2022/06/06 04:52:18;;;;;;;1.92;1.00;;;15.30;99.90;;;;;;4805721;29;20031;-92
2022/06/06 04:55:02;;;;;;;2.28;0.98;;;15.40;99.90;;;;;;4812636;29;20043;-92
2022/06/06 05:00:53;;;;;;;4.20;0.88;;;15.70;99.90;;;;;;4816885;29;20109;-91
2022/06/06 05:03:44;;;;;;;2.03;0.93;;;15.80;99.90;;;;;;4792574;29;20091;-92
2022/06/06 05:06:31;;;;;;;2.72;1.02;;;15.70;99.90;;;;;;4796269;29;20113;-92
2022/06/06 05:10:19;;;;;;;1.73;0.70;;;15.80;99.90;;;;;;4791366;29;20029;-91
2022/06/06 05:13:00;;;;;;;2.80;1.10;;;16.10;99.90;;;;;;4794812;29;20031;-92
2022/06/06 05:26:44;;;;;;;2.75;1.13;;;16.20;99.90;;;;;;4599370;27;20423;-91
2022/06/06 05:30:07;;;;;;;2.53;1.08;;;16.40;99.90;;;;;;4829039;29;20436;-91
2022/06/06 05:33:09;;;;;;;3.03;0.90;;;15.90;99.90;;;;;;4814741;29;20439;-91
2022/06/06 05:36:11;;;;;;;2.17;0.90;;;16.40;99.90;;;;;;4824956;29;20042;-91
2022/06/06 05:39:13;;;;;;;4.10;0.90;;;16.40;99.90;;;;;;4842654;29;20048;-91
2022/06/06 05:42:02;;;;;;;2.80;1.13;;;16.30;99.90;;;;;;4850959;29;20030;-91
2022/06/06 05:44:43;;;;;;;2.25;0.75;;;16.20;99.90;;;;;;4837184;24;21972;-86
2022/06/06 05:47:20;;;;;;;1.83;0.88;;;16.20;99.90;;;;;;4797062;29;20092;-87
2022/06/06 05:50:12;;;;;;;1.48;0.80;;;16.40;99.90;;;;;;4799293;29;20382;-87
2022/06/06 05:53:14;;;;;;;2.83;0.80;;;16.60;99.90;;;;;;4795542;29;20611;-87
2022/06/06 05:56:09;;;;;;;2.22;1.00;;;16.70;99.90;;;;;;4790761;30;20031;-88
2022/06/06 05:58:35;;;;;;;1.73;0.90;;;16.80;99.90;;;;;;4800967;29;20023;-88
2022/06/06 06:01:31;;;;;;;4.28;1.00;;;16.90;99.90;;;;;;4784740;29;20120;-87
2022/06/06 06:04:38;;;;;;;2.25;0.93;;;16.80;99.90;;;;;;4778571;29;20047;-87
2022/06/06 06:07:16;;;;;;;1.90;1.13;;;16.80;99.90;;;;;;4793398;29;20136;-86
2022/06/06 06:09:52;;;;;;;2.67;0.90;;;16.70;99.90;;;;;;4774029;29;20035;-88
2022/06/06 06:12:18;;;;;;;2.20;1.20;;;16.80;99.90;;;;;;4780260;29;20048;-88
2022/06/06 06:15:03;;;;;;;2.25;1.15;;;16.80;99.90;;;;;;4797237;29;20032;-87
2022/06/06 06:17:31;;;;;;;2.80;1.10;;;16.90;99.90;;;;;;4778713;30;20201;-87
2022/06/06 06:20:11;;;;;;;2.20;1.10;;;17.40;99.90;;;;;;4777639;29;20074;-86
2022/06/06 06:22:40;;;;;;;1.98;0.93;;;17.20;99.90;;;;;;4782962;30;20086;-88
2022/06/06 06:25:10;;;;;;;3.20;1.30;;;17.20;99.90;;;;;;4785000;29;20035;-87
2022/06/06 06:27:36;;;;;;;3.10;1.20;;;17.20;99.90;;;;;;4783177;29;20306;-87
2022/06/06 06:30:07;;;;;;;4.00;1.30;;;17.20;99.90;;;;;;4784207;29;20036;-87
2022/06/06 06:32:35;;;;;;;3.33;1.40;;;17.50;99.90;;;;;;4783388;29;20370;-88
2022/06/06 06:35:12;;;;;;;2.53;1.08;;;17.20;99.90;;;;;;4784646;29;20463;-86
2022/06/06 06:38:05;;;;;;;2.28;1.30;;;17.30;99.90;;;;;;4782681;29;20031;-87
2022/06/06 06:40:56;;;;;;;2.28;0.98;;;17.20;99.90;;;;;;4783524;29;20043;-86
2022/06/06 06:44:00;;;;;;;2.58;1.30;;;17.30;99.90;;;;;;4783938;29;20401;-87
2022/06/06 06:46:47;;;;;;;2.30;1.38;;;17.50;99.90;;;;;;4783229;29;20049;-88
2022/06/06 06:49:28;;;;;;;3.13;1.42;;;17.50;99.90;;;;;;4801692;29;20104;-88
2022/06/06 06:52:24;;;;;;;2.60;1.20;;;17.40;99.90;;;;;;4784901;29;20039;-87
2022/06/06 06:55:09;;;;;;;4.85;1.20;;;17.50;99.90;;;;;;4785666;29;20485;-87
2022/06/06 06:58:03;;;;;;;2.22;1.10;;;17.60;99.90;;;;;;4786910;29;20027;-88
2022/06/06 07:00:39;;;;;;;2.35;1.17;;;17.60;99.90;;;;;;4802115;29;20039;-87
2022/06/06 07:10:11;;;;;;;3.20;1.02;;;18.10;99.90;;;;;;4785569;29;20042;-88
2022/06/06 07:13:11;;;;;;;2.38;1.13;;;18.40;99.90;;;;;;4784488;30;20035;-88
2022/06/06 07:16:02;;;;;;;2.95;1.55;;;18.60;99.90;;;;;;4801425;29;20036;-88
2022/06/06 07:18:32;;;;;;;2.08;1.00;;;18.70;99.90;;;;;;4784064;30;20393;-87
2022/06/06 07:21:02;;;;;;;3.55;1.38;;;18.80;99.90;;;;;;4786282;29;20042;-87
2022/06/06 07:23:35;;;;;;;3.05;1.40;;;18.90;99.90;;;;;;4786950;29;20031;-87
2022/06/06 07:26:03;;;;;;;2.97;1.23;;;19.10;99.90;;;;;;4784749;29;20028;-87
2022/06/06 07:28:29;;;;;;;1.83;0.90;;;19.20;99.90;;;;;;4782977;29;20035;-87
2022/06/06 07:31:03;;;;;;;4.05;1.20;;;19.20;99.90;;;;;;4786196;29;20389;-87
2022/06/06 07:33:31;;;;;;;2.20;1.15;;;19.20;99.90;;;;;;4787606;29;20505;-87
2022/06/06 07:36:16;;;;;;;2.70;1.17;;;19.00;99.90;;;;;;4797189;29;20035;-88
2022/06/06 07:39:10;;;;;;;2.80;1.30;;;19.20;99.90;;;;;;4793177;29;20036;-87
2022/06/06 07:42:11;;;;;;;2.40;0.90;;;19.30;99.90;;;;;;4786477;29;20031;-88
2022/06/06 07:44:56;;;;;;;2.13;1.08;;;19.30;99.90;;;;;;4799314;29;20439;-87
2022/06/06 07:47:34;;;;;;;2.83;1.00;;;19.30;99.90;;;;;;4784486;29;20036;-88
2022/06/06 07:50:25;;;;;;;2.38;1.17;;;19.40;99.90;;;;;;4784400;30;20024;-86
2022/06/06 07:53:13;;;;;;;1.83;0.82;;;19.70;99.90;;;;;;4786417;29;20201;-87
2022/06/06 07:56:02;;;;;;;2.67;1.10;;;19.80;99.90;;;;;;4786766;29;20043;-87
2022/06/06 07:58:57;;;;;;;2.10;1.10;;;19.40;99.90;;;;;;4787759;29;20030;-87
2022/06/06 08:01:39;;;;;;;2.10;1.00;;;20.40;99.90;;;;;;4803744;29;20035;-86
2022/06/06 08:04:41;;;;;;;3.90;0.98;;;20.40;99.90;;;;;;4788721;29;20027;-87
2022/06/06 08:07:44;;;;;;;1.88;0.93;;;20.20;99.90;;;;;;4788973;29;20046;-88
2022/06/06 08:10:39;;;;;;;2.30;1.08;;;20.10;99.90;;;;;;4786054;29;20019;-86
2022/06/06 08:13:39;;;;;;;1.95;0.90;;;20.00;99.90;;;;;;4783809;29;20023;-87
2022/06/06 08:16:41;;;;;;;3.17;1.10;;;19.80;99.90;;;;;;4785622;29;20035;-88
2022/06/06 08:19:19;;;;;;;1.90;0.90;;;19.80;99.90;;;;;;4784354;30;20037;-87
2022/06/06 08:21:47;;;;;;;2.20;0.90;;;19.80;99.90;;;;;;4776593;29;20450;-87
2022/06/06 08:24:29;;;;;;;2.45;0.98;;;19.90;99.90;;;;;;4785894;29;20031;-87
2022/06/06 08:27:00;;;;;;;2.50;1.00;;;19.80;99.90;;;;;;4786080;29;20028;-87
2022/06/06 08:29:27;;;;;;;2.50;0.70;;;20.10;99.90;;;;;;4785363;30;20062;-87
2022/06/06 08:31:56;;;;;;;1.85;0.60;;;20.30;99.90;;;;;;4784655;29;20039;-87
2022/06/06 08:34:21;;;;;;;1.27;0.80;;;20.30;99.90;;;;;;4786597;29;20031;-86
2022/06/06 08:37:18;;;;;;;1.38;0.70;;;20.50;99.90;;;;;;4785039;29;20142;-86
2022/06/06 08:40:34;;;;;;;1.50;0.73;;;20.70;99.90;;;;;;4796222;29;20043;-87
2022/06/06 08:43:40;;;;;;;1.63;0.73;;;20.80;99.90;;;;;;4786328;29;20035;-87
2022/06/06 08:46:33;;;;;;;3.65;1.00;;;21.30;99.90;;;;;;4801515;29;20055;-87
2022/06/06 08:52:25;;;;;;;3.03;0.80;;;21.90;99.90;;;;;;4776616;29;20756;-87
2022/06/06 08:55:23;;;;;;;1.58;0.73;;;20.90;99.90;;;;;;4784277;29;20035;-86
2022/06/06 08:58:10;;;;;;;2.95;0.82;;;20.90;99.90;;;;;;4784627;29;20055;-86
2022/06/06 09:01:20;;;;;;;2.03;0.75;;;21.10;99.90;;;;;;4781585;29;20096;-87
2022/06/06 09:04:25;;;;;;;1.85;0.85;;;21.50;99.90;;;;;;4784671;29;20034;-86
2022/06/06 09:07:34;;;;;;;0.82;0.50;;;21.40;99.90;;;;;;4791681;29;20051;-86
2022/06/06 09:10:17;;;;;;;1.35;0.80;;;21.60;99.90;;;;;;4784899;29;20019;-86
2022/06/06 09:13:20;;;;;;;0.88;0.40;;;21.90;99.90;;;;;;4786664;30;20037;-86
2022/06/06 09:16:07;;;;;;;1.63;0.50;;;21.90;99.90;;;;;;4798750;29;20029;-87
2022/06/06 09:19:03;;;;;;;1.08;0.40;;;21.90;99.90;;;;;;4782819;30;20031;-86
2022/06/06 09:22:10;;;;;;;1.77;0.40;;;22.20;99.90;;;;;;4786081;29;20501;-87
2022/06/06 09:24:55;;;;;;;1.17;0.40;;;22.20;99.90;;;;;;4781989;29;20545;-86
2022/06/06 09:27:23;;;;;;;0.82;0.30;;;22.30;99.90;;;;;;4785968;29;20039;-86
2022/06/06 09:30:07;;;;;;;0.63;0.28;;;22.00;99.90;;;;;;4784563;30;20034;-86
2022/06/06 09:33:20;;;;;;;1.20;0.40;;;21.70;99.90;;;;;;4784259;29;20042;-87
2022/06/06 09:36:18;;;;;;;1.00;0.40;;;22.00;99.90;;;;;;4784242;29;20043;-87
2022/06/06 09:39:07;;;;;;;1.00;0.43;;;22.20;99.90;;;;;;4784460;29;20550;-87
2022/06/06 09:42:04;;;;;;;0.55;0.30;;;22.40;99.90;;;;;;4784491;29;20032;-86
2022/06/06 09:45:13;;;;;;;1.90;0.52;;;22.80;99.90;;;;;;4796108;29;20532;-86
2022/06/06 09:48:06;;;;;;;2.03;0.40;;;22.60;99.90;;;;;;4779299;30;20067;-86
2022/06/06 09:50:41;;;;;;;1.20;0.47;;;22.20;99.90;;;;;;4781365;29;20043;-87
2022/06/06 09:53:35;;;;;;;1.52;0.40;;;22.20;99.90;;;;;;4786108;29;20039;-83
2022/06/06 09:59:16;;;;;;;1.60;0.50;;;21.70;99.90;;;;;;4787189;29;20051;-86
2022/06/06 10:01:53;;;;;;;2.15;0.43;;;22.20;99.90;;;;;;4784012;29;20624;-87
2022/06/06 10:04:55;;;;;;;1.10;0.40;;;22.80;99.90;;;;;;4784322;29;20031;-86
2022/06/06 10:07:30;;;;;;;0.93;0.43;;;22.90;99.90;;;;;;4776394;29;20031;-86
2022/06/06 10:10:13;;;;;;;1.55;0.50;;;23.00;99.90;;;;;;4794334;29;20068;-87
2022/06/06 10:12:42;;;;;;;1.38;0.55;;;23.10;99.90;;;;;;4781809;30;20420;-85
2022/06/06 10:15:29;;;;;;;1.15;0.50;;;23.00;99.90;;;;;;4782778;29;20114;-86
2022/06/06 10:18:14;;;;;;;1.08;0.50;;;23.10;99.90;;;;;;4783888;30;20028;-86
2022/06/06 10:20:57;;;;;;;0.63;0.30;;;23.00;99.90;;;;;;4783978;29;20201;-86
2022/06/06 10:23:34;;;;;;;0.90;0.40;;;23.10;99.90;;;;;;4783056;29;20034;-87
2022/06/06 10:26:20;;;;;;;0.82;0.50;;;22.70;99.90;;;;;;4804218;29;20027;-85
2022/06/06 10:29:01;;;;;;;1.10;0.40;;;22.60;99.90;;;;;;4803054;29;20036;-86
2022/06/06 10:31:33;;;;;;;2.15;0.40;;;22.50;99.90;;;;;;4779112;30;20054;-85
2022/06/06 10:34:07;;;;;;;0.70;0.40;;;22.90;99.90;;;;;;4786353;29;20035;-86
2022/06/06 10:36:58;;;;;;;0.80;0.40;;;23.60;99.90;;;;;;4786901;30;20023;-86
2022/06/06 10:39:45;;;;;;;1.20;0.50;;;24.30;99.90;;;;;;4784604;30;20023;-87
2022/06/06 10:42:24;;;;;;;1.40;0.47;;;24.70;98.80;;;;;;4799227;29;20027;-86
2022/06/06 10:45:08;;;;;;;1.90;0.40;;;24.80;97.90;;;;;;4787667;29;20082;-86
2022/06/06 10:47:40;;;;;;;1.23;0.40;;;24.60;97.90;;;;;;4785670;30;20035;-87
2022/06/06 10:50:29;;;;;;;0.98;0.50;;;24.20;98.90;;;;;;4786511;29;20028;-86
2022/06/06 10:53:24;;;;;;;0.93;0.30;;;24.00;98.30;;;;;;4787165;29;20392;-86
2022/06/06 10:56:18;;;;;;;1.00;0.40;;;24.20;97.60;;;;;;4785904;29;20027;-87
2022/06/06 10:58:58;;;;;;;1.00;0.47;;;23.20;98.40;;;;;;4778822;29;20028;-87
2022/06/06 11:01:53;;;;;;;0.93;0.30;;;24.30;97.30;;;;;;4786525;29;20031;-87
2022/06/06 11:04:36;;;;;;;1.15;0.40;;;24.50;97.10;;;;;;4787907;29;20265;-87
2022/06/06 11:07:54;;;;;;;1.70;0.50;;;24.40;98.00;;;;;;4781120;29;20055;-87
2022/06/06 11:10:37;;;;;;;0.80;0.35;;;24.70;97.20;;;;;;4787894;30;20024;-86
2022/06/06 11:13:17;;;;;;;1.02;0.30;;;24.30;96.10;;;;;;4786694;29;20111;-85
2022/06/06 11:16:16;;;;;;;1.65;0.47;;;24.40;95.50;;;;;;4792663;29;20027;-86
2022/06/06 11:18:57;;;;;;;1.10;0.40;;;23.90;96.30;;;;;;4795649;29;20054;-86
2022/06/06 11:21:48;;;;;;;1.15;0.40;;;23.60;96.70;;;;;;4791270;30;20078;-87
2022/06/06 11:24:19;;;;;;;;;;;23.80;97.90;;;;;;4782713;29;20049;-86
2022/06/06 11:27:18;;;;;;;0.75;0.30;;;23.80;97.20;;;;;;4802954;29;19967;-86
2022/06/06 11:30:08;;;;;;;0.98;0.38;;;24.90;97.60;;;;;;4800784;29;20038;-87
2022/06/06 11:32:49;;;;;;;1.48;0.50;;;24.00;96.80;;;;;;4785712;29;20035;-86
2022/06/06 11:35:37;;;;;;;0.70;0.30;;;23.60;97.60;;;;;;4786455;29;20024;-86
2022/06/06 11:38:23;;;;;;;1.00;0.40;;;23.40;97.70;;;;;;4786172;29;20032;-87
2022/06/06 11:40:57;;;;;;;1.55;0.40;;;23.20;98.30;;;;;;4785801;29;20047;-86
2022/06/06 11:43:50;;;;;;;1.40;0.50;;;22.40;98.10;;;;;;4787131;30;20035;-85
2022/06/06 12:51:49;;;;;;;0.65;0.30;;;26.50;92.30;;;;;;3088353;27;20119;-91
2022/06/06 12:58:22;;;;;;;0.93;0.40;;;27.90;91.90;;;;;;4847684;29;20109;-92
2022/06/06 13:01:46;;;;;;;1.23;0.40;;;27.80;91.20;;;;;;4850790;29;20078;-92
2022/06/06 13:05:12;;;;;;;1.80;0.90;;;28.50;92.70;;;;;;4842983;29;20030;-92
2022/06/06 13:08:13;;;;;;;0.70;0.40;;;27.40;90.80;;;;;;4836344;29;20110;-90
2022/06/06 13:11:28;;;;;;;0.85;0.30;;;26.90;90.20;;;;;;4852390;29;20046;-92
2022/06/06 13:14:47;;;;;;;0.70;0.28;;;26.40;91.20;;;;;;4850916;29;20086;-91
2022/06/06 13:21:09;;;;;;;0.90;0.30;;;25.30;92.10;;;;;;4854609;29;20080;-91
2022/06/06 13:24:28;;;;;;;0.82;0.20;;;24.70;93.40;;;;;;4858297;29;20038;-92
2022/06/06 13:40:55;;;;;;;;;;;;;;;;;;;;;
2022/06/06 13:43:34;;;;;;;0.95;0.30;;;23.30;93.90;;;;;;4850261;29;20117;-90
2022/06/06 13:46:21;;;;;;;0.70;0.40;;;23.20;93.90;;;;;;4840391;29;20037;-90
2022/06/06 13:49:41;;;;;;;;;;;;;;;;;;;;;
2022/06/06 13:52:55;;;;;;;0.75;0.43;;;22.90;94.50;;;;;;4856877;29;20117;-90
2022/06/06 13:55:40;;;;;;;1.30;0.30;;;22.70;95.50;;;;;;4868659;29;20033;-92
2022/06/06 13:58:28;;;;;;;0.75;0.30;;;22.50;94.90;;;;;;4850056;29;20025;-90
2022/06/06 14:01:52;;;;;;;0.50;0.30;;;21.60;95.20;;;;;;4849233;29;20114;-91
2022/06/06 14:08:20;;;;;;;0.85;0.20;;;22.40;94.40;;;;;;4852980;29;20104;-91
2022/06/06 14:11:03;;;;;;;1.13;0.50;;;22.90;94.60;;;;;;4847869;29;20026;-90
2022/06/06 14:13:52;;;;;;;0.70;0.40;;;22.30;95.90;;;;;;4842523;29;20042;-90
2022/06/06 14:16:27;;;;;;;1.00;0.40;;;23.50;95.50;;;;;;4851460;29;20030;-88
2022/06/06 14:19:15;;;;;;;0.77;0.40;;;21.90;95.90;;;;;;4839508;29;20050;-91
2022/06/06 14:22:04;;;;;;;1.50;0.30;;;22.10;95.00;;;;;;4839092;29;20079;-91
2022/06/06 14:24:58;;;;;;;0.93;0.40;;;22.10;96.10;;;;;;4840864;29;20038;-91
2022/06/06 14:28:00;;;;;;;1.00;0.43;;;22.20;96.10;;;;;;4847252;29;20177;-91
2022/06/06 14:30:35;;;;;;;1.88;0.55;;;23.20;95.80;;;;;;4846174;29;20042;-91
2022/06/06 14:33:22;;;;;;;0.98;0.45;;;22.40;95.80;;;;;;4851836;29;20451;-91
2022/06/06 14:35:56;;;;;;;2.10;0.65;;;22.60;96.10;;;;;;4850485;29;20037;-91
2022/06/06 14:38:30;;;;;;;0.75;0.40;;;22.70;95.40;;;;;;4849161;29;20098;-91
2022/06/06 14:41:09;;;;;;;2.08;0.50;;;23.60;95.60;;;;;;4857133;29;20112;-92
2022/06/06 14:47:42;;;;;;;1.15;0.47;;;23.90;95.00;;;;;;4850702;29;20077;-91
2022/06/06 14:50:47;;;;;;;1.08;0.60;;;23.60;94.90;;;;;;4849348;29;20034;-93
2022/06/06 14:53:33;;;;;;;0.88;0.30;;;23.90;95.40;;;;;;4845971;29;20110;-93
2022/06/06 14:56:41;;;;;;;;;;;;;;;;;;;;;
2022/06/06 14:59:16;;;;;;;1.60;0.40;;;24.60;94.30;;;;;;4853928;29;20045;-91
2022/06/06 15:01:50;;;;;;;1.27;0.43;;;25.40;94.90;;;;;;4847298;29;20094;-92
2022/06/06 15:04:35;;;;;;;1.10;0.38;;;25.50;93.50;;;;;;4856175;29;20105;-93
2022/06/06 15:07:08;;;;;;;1.02;0.40;;;25.80;92.50;;;;;;4854701;29;20407;-93
2022/06/06 15:10:22;;;;;;;0.93;0.50;;;25.50;93.30;;;;;;4857049;29;20443;-94
2022/06/06 15:12:55;;;;;;;1.02;0.50;;;24.90;93.70;;;;;;4844831;29;20050;-93
2022/06/06 15:15:41;;;;;;;1.88;0.60;;;24.70;93.50;;;;;;4851463;29;20046;-92
2022/06/06 15:18:07;;;;;;;0.60;0.30;;;25.30;93.70;;;;;;4853202;29;20034;-92
2022/06/06 15:20:48;;;;;;;1.05;0.47;;;24.20;94.60;;;;;;4847960;29;20479;-92
2022/06/06 15:23:21;;;;;;;;;;;24.10;94.20;;;;;;4845941;29;20041;-92
2022/06/06 15:26:26;;;;;;;1.75;0.57;;;24.00;94.10;;;;;;4855173;29;19911;-92
2022/06/06 15:29:01;;;;;;;2.30;0.50;;;24.50;93.90;;;;;;4847486;29;20037;-92
2022/06/06 15:32:02;;;;;;;;;;;;;;;;;;;;;
2022/06/06 15:35:21;;;;;;;;;;;;;;;;;;;;;
2022/06/06 15:38:28;;;;;;;0.55;0.32;;;23.60;93.70;;;;;;4849386;29;20110;-93
2022/06/06 15:44:20;;;;;;;0.85;0.40;;;23.70;93.90;;;;;;4852056;29;20055;-92
2022/06/06 15:46:54;;;;;;;1.70;0.32;;;23.70;95.30;;;;;;4846223;29;20034;-93
2022/06/06 15:50:06;;;;;;;0.98;0.40;;;23.80;95.00;;;;;;4869153;29;20052;-92
2022/06/06 15:53:16;;;;;;;1.42;0.40;;;24.40;94.70;;;;;;4838307;29;20035;-93
2022/06/06 15:56:17;;;;;;;1.40;0.50;;;25.70;94.80;;;;;;4852429;29;20067;-91
2022/06/06 15:59:10;;;;;;;0.95;0.50;;;24.50;94.00;;;;;;4853609;29;20030;-92
2022/06/06 16:02:02;;;;;;;1.83;0.40;;;24.10;94.00;;;;;;4855925;29;20037;-92
2022/06/06 16:05:17;;;;;;;1.58;0.50;;;23.10;94.80;;;;;;4852639;29;20049;-92
2022/06/06 16:08:24;;;;;;;1.10;0.50;;;24.00;95.10;;;;;;4834659;29;20038;-92
2022/06/06 16:11:08;;;;;;;1.10;0.50;;;23.70;95.50;;;;;;4794119;29;20032;-92
2022/06/06 16:14:06;;;;;;;0.68;0.30;;;23.10;95.70;;;;;;4774743;30;20040;-93
2022/06/06 16:17:07;;;;;;;1.05;0.50;;;23.10;96.90;;;;;;4838148;29;20042;-91
2022/06/06 16:19:39;;;;;;;1.88;0.60;;;23.50;97.10;;;;;;4832492;29;20522;-91
2022/06/06 16:22:50;;;;;;;1.75;0.70;;;22.80;96.50;;;;;;4850619;29;20034;-92
2022/06/06 16:25:27;;;;;;;2.05;0.50;;;22.60;97.10;;;;;;4844417;29;20026;-92
2022/06/06 16:28:22;;;;;;;1.50;0.80;;;22.60;96.90;;;;;;4849839;29;20041;-91
2022/06/06 16:31:04;;;;;;;1.23;0.60;;;22.40;96.90;;;;;;4856187;29;20022;-92
2022/06/06 16:34:00;;;;;;;1.08;0.50;;;21.70;97.20;;;;;;4846001;29;20045;-92
2022/06/06 16:40:40;;;;;;;1.40;0.60;;;22.40;97.20;;;;;;4844813;29;20034;-92
2022/06/06 16:49:53;;;;;;;1.35;0.50;;;21.90;97.80;;;;;;4844830;29;20033;-92
2022/06/06 16:52:39;;;;;;;;;;;21.90;98.10;;;;;;4858036;29;20041;-92
2022/06/06 16:55:26;;;;;;;1.30;0.70;;;21.70;98.40;;;;;;4848278;29;19952;-91
2022/06/06 16:58:30;;;;;;;1.83;0.68;;;21.70;98.10;;;;;;4845646;29;20025;-91
2022/06/06 17:01:53;;;;;;;2.00;0.50;;;21.50;97.80;;;;;;4850921;29;20112;-91
2022/06/06 17:08:10;;;;;;;;;;;;;;;;;;;;;
2022/06/06 17:11:20;;;;;;;0.77;0.43;;;21.10;98.40;;;;;;4852985;29;20112;-92
2022/06/06 17:14:01;;;;;;;0.80;0.30;;;20.20;98.30;;;;;;4842309;29;20075;-91
2022/06/06 17:17:00;;;;;;;2.03;0.80;;;20.90;98.80;;;;;;4846068;29;20153;-90
2022/06/06 17:20:04;;;;;;;1.20;0.47;;;21.80;98.90;;;;;;4848132;29;20045;-91
2022/06/06 17:22:54;;;;;;;2.83;0.65;;;21.70;99.90;;;;;;4848733;29;20058;-92
2022/06/06 17:25:45;;;;;;;1.35;0.60;;;20.90;99.10;;;;;;4848599;29;20098;-92
2022/06/06 17:28:42;;;;;;;;;;;;;;;;;;;;;
2022/06/06 17:31:49;;;;;;;2.20;0.77;;;20.60;99.40;;;;;;4852262;29;20050;-91
2022/06/06 17:41:36;;;;;;;1.42;0.50;;;20.60;99.70;;;;;;4836763;29;20041;-91
2022/06/06 17:44:42;;;;;;;0.68;0.40;;;20.80;99.80;;;;;;4844403;29;20528;-91
2022/06/06 17:47:36;;;;;;;1.85;0.40;;;21.40;99.90;;;;;;4857880;29;20512;-92
2022/06/06 17:50:53;;;;;;;0.82;0.40;;;20.40;99.90;;;;;;4841173;29;20048;-91
2022/06/06 17:56:28;;;;;;;1.15;0.52;;;20.30;99.90;;;;;;4881527;23;20063;-90
2022/06/06 18:09:32;;;;;;;1.25;0.40;;;20.00;99.80;;;;;;4824894;29;20034;-89